sensor_id;sensor_type;location;lat;lon;timestamp;P1;durP1;ratioP1;P2;durP2;ratioP2
25980;SDS011;13772;52.996;9.124;2023-03-01T07:26:58;7.50;;;4.22;;
25980;SDS011;13772;52.996;9.124;2023-03-01T07:29:23;6.22;;;3.60;;
25980;SDS011;13772;52.996;9.124;2023-03-01T07:31:48;6.43;;;3.90;;
25980;SDS011;13772;52.996;9.124;2023-03-01T07:34:13;8.20;;;3.92;;
25980;SDS011;13772;52.996;9.124;2023-03-01T07:36:39;11.45;;;4.22;;
25980;SDS011;13772;52.996;9.124;2023-03-01T07:39:07;9.20;;;4.50;;
25980;SDS011;13772;52.996;9.124;2023-03-01T07:41:32;8.85;;;4.18;;
25980;SDS011;13772;52.996;9.124;2023-03-01T07:43:57;7.32;;;4.50;;
25980;SDS011;13772;52.996;9.124;2023-03-01T07:46:23;8.90;;;4.13;;
25980;SDS011;13772;52.996;9.124;2023-03-01T07:48:48;8.55;;;4.53;;
25980;SDS011;13772;52.996;9.124;2023-03-01T07:51:13;7.68;;;4.13;;
25980;SDS011;13772;52.996;9.124;2023-03-01T07:53:38;12.38;;;4.80;;
25980;SDS011;13772;52.996;9.124;2023-03-01T07:56:06;12.10;;;5.15;;
25980;SDS011;13772;52.996;9.124;2023-03-01T07:58:33;7.03;;;4.60;;
25980;SDS011;13772;52.996;9.124;2023-03-01T08:01:01;8.00;;;5.03;;
25980;SDS011;13772;52.996;9.124;2023-03-01T08:03:26;9.43;;;4.80;;
25980;SDS011;13772;52.996;9.124;2023-03-01T08:05:51;9.45;;;4.97;;
25980;SDS011;13772;52.996;9.124;2023-03-01T08:08:16;10.93;;;5.22;;
25980;SDS011;13772;52.996;9.124;2023-03-01T08:10:41;7.88;;;4.50;;
25980;SDS011;13772;52.996;9.124;2023-03-01T08:13:07;8.52;;;4.95;;
25980;SDS011;13772;52.996;9.124;2023-03-01T08:15:32;8.77;;;5.28;;
25980;SDS011;13772;52.996;9.124;2023-03-01T08:17:57;11.20;;;5.43;;
25980;SDS011;13772;52.996;9.124;2023-03-01T08:20:22;10.25;;;5.05;;
25980;SDS011;13772;52.996;9.124;2023-03-01T08:22:47;10.23;;;5.80;;
25980;SDS011;13772;52.996;9.124;2023-03-01T08:25:13;8.75;;;5.38;;
25980;SDS011;13772;52.996;9.124;2023-03-01T08:27:38;10.10;;;5.10;;
25980;SDS011;13772;52.996;9.124;2023-03-01T08:30:04;8.50;;;4.90;;
25980;SDS011;13772;52.996;9.124;2023-03-01T08:32:32;10.50;;;5.97;;
25980;SDS011;13772;52.996;9.124;2023-03-01T08:34:59;8.80;;;4.70;;
25980;SDS011;13772;52.996;9.124;2023-03-01T08:37:25;7.97;;;5.17;;
25980;SDS011;13772;52.996;9.124;2023-03-01T08:39:50;8.63;;;4.97;;
25980;SDS011;13772;52.996;9.124;2023-03-01T08:42:15;9.30;;;5.63;;
25980;SDS011;13772;52.996;9.124;2023-03-01T08:44:40;7.43;;;4.50;;
25980;SDS011;13772;52.996;9.124;2023-03-01T08:47:05;9.02;;;5.40;;
25980;SDS011;13772;52.996;9.124;2023-03-01T08:49:30;8.63;;;5.23;;
25980;SDS011;13772;52.996;9.124;2023-03-01T08:51:57;11.18;;;5.15;;
25980;SDS011;13772;52.996;9.124;2023-03-01T08:54:22;9.23;;;4.85;;
25980;SDS011;13772;52.996;9.124;2023-03-01T08:56:48;9.32;;;5.25;;
25980;SDS011;13772;52.996;9.124;2023-03-01T08:59:14;8.30;;;5.07;;
25980;SDS011;13772;52.996;9.124;2023-03-01T09:01:39;8.65;;;5.03;;
25980;SDS011;13772;52.996;9.124;2023-03-01T09:04:05;8.98;;;4.70;;
25980;SDS011;13772;52.996;9.124;2023-03-01T09:06:31;9.48;;;4.47;;
25980;SDS011;13772;52.996;9.124;2023-03-01T09:08:57;6.10;;;4.25;;
25980;SDS011;13772;52.996;9.124;2023-03-01T09:11:23;6.97;;;4.60;;
25980;SDS011;13772;52.996;9.124;2023-03-01T09:13:48;7.90;;;4.68;;
25980;SDS011;13772;52.996;9.124;2023-03-01T09:16:15;8.00;;;4.60;;
25980;SDS011;13772;52.996;9.124;2023-03-01T09:18:41;10.18;;;4.97;;
25980;SDS011;13772;52.996;9.124;2023-03-01T09:21:08;7.18;;;4.68;;
25980;SDS011;13772;52.996;9.124;2023-03-01T09:23:34;8.20;;;4.70;;
25980;SDS011;13772;52.996;9.124;2023-03-01T09:26:01;12.43;;;4.95;;
25980;SDS011;13772;52.996;9.124;2023-03-01T09:28:27;10.13;;;4.90;;
25980;SDS011;13772;52.996;9.124;2023-03-01T09:30:52;10.30;;;5.03;;
25980;SDS011;13772;52.996;9.124;2023-03-01T09:33:17;6.47;;;4.10;;
25980;SDS011;13772;52.996;9.124;2023-03-01T09:35:42;7.70;;;4.57;;
25980;SDS011;13772;52.996;9.124;2023-03-01T09:38:12;10.52;;;4.47;;
25980;SDS011;13772;52.996;9.124;2023-03-01T09:40:41;7.75;;;4.47;;
25980;SDS011;13772;52.996;9.124;2023-03-01T09:43:08;8.68;;;4.30;;
25980;SDS011;13772;52.996;9.124;2023-03-01T09:45:39;10.93;;;3.92;;
25980;SDS011;13772;52.996;9.124;2023-03-01T09:48:07;6.22;;;3.88;;
25980;SDS011;13772;52.996;9.124;2023-03-01T09:50:38;10.68;;;3.90;;
25980;SDS011;13772;52.996;9.124;2023-03-01T09:53:11;11.48;;;3.55;;
25980;SDS011;13772;52.996;9.124;2023-03-01T09:55:43;7.03;;;4.18;;
25980;SDS011;13772;52.996;9.124;2023-03-01T10:04:00;7.65;;;4.10;;
25980;SDS011;13772;52.996;9.124;2023-03-01T10:06:29;6.22;;;2.80;;
25980;SDS011;13772;52.996;9.124;2023-03-01T10:11:38;5.78;;;3.10;;
25980;SDS011;13772;52.996;9.124;2023-03-01T10:14:15;7.93;;;3.15;;
25980;SDS011;13772;52.996;9.124;2023-03-01T10:16:45;7.70;;;3.55;;
25980;SDS011;13772;52.996;9.124;2023-03-01T10:19:15;7.35;;;3.58;;
25980;SDS011;13772;52.996;9.124;2023-03-01T10:21:43;7.00;;;3.22;;
25980;SDS011;13772;52.996;9.124;2023-03-01T10:24:16;6.25;;;2.80;;
25980;SDS011;13772;52.996;9.124;2023-03-01T10:26:54;5.22;;;2.83;;
25980;SDS011;13772;52.996;9.124;2023-03-01T10:29:23;7.88;;;3.67;;
25980;SDS011;13772;52.996;9.124;2023-03-01T10:31:50;7.90;;;4.30;;
25980;SDS011;13772;52.996;9.124;2023-03-01T10:34:18;7.75;;;4.30;;
25980;SDS011;13772;52.996;9.124;2023-03-01T10:36:44;6.63;;;4.10;;
25980;SDS011;13772;52.996;9.124;2023-03-01T10:39:28;9.07;;;4.38;;
25980;SDS011;13772;52.996;9.124;2023-03-01T10:44:41;10.10;;;5.00;;
25980;SDS011;13772;52.996;9.124;2023-03-01T10:47:14;9.38;;;4.47;;
25980;SDS011;13772;52.996;9.124;2023-03-01T10:49:42;10.82;;;5.80;;
25980;SDS011;13772;52.996;9.124;2023-03-01T10:52:19;12.32;;;6.95;;
25980;SDS011;13772;52.996;9.124;2023-03-01T10:57:10;8.98;;;5.82;;
25980;SDS011;13772;52.996;9.124;2023-03-01T10:59:51;9.25;;;6.00;;
25980;SDS011;13772;52.996;9.124;2023-03-01T11:02:28;10.13;;;7.20;;
25980;SDS011;13772;52.996;9.124;2023-03-01T11:04:58;11.90;;;6.65;;
25980;SDS011;13772;52.996;9.124;2023-03-01T11:07:24;10.27;;;6.97;;
25980;SDS011;13772;52.996;9.124;2023-03-01T11:09:49;9.93;;;6.72;;
25980;SDS011;13772;52.996;9.124;2023-03-01T11:12:15;9.48;;;6.20;;
25980;SDS011;13772;52.996;9.124;2023-03-01T11:14:50;11.82;;;6.63;;
25980;SDS011;13772;52.996;9.124;2023-03-01T11:17:26;10.60;;;5.90;;
25980;SDS011;13772;52.996;9.124;2023-03-01T11:20:25;9.13;;;6.13;;
25980;SDS011;13772;52.996;9.124;2023-03-01T11:22:45;9.07;;;5.68;;
25980;SDS011;13772;52.996;9.124;2023-03-01T11:25:13;10.00;;;6.40;;
25980;SDS011;13772;52.996;9.124;2023-03-01T11:27:43;10.93;;;6.72;;
25980;SDS011;13772;52.996;9.124;2023-03-01T11:32:36;9.38;;;5.97;;
25980;SDS011;13772;52.996;9.124;2023-03-01T11:40:49;8.75;;;5.85;;
25980;SDS011;13772;52.996;9.124;2023-03-01T11:43:19;10.95;;;5.72;;
25980;SDS011;13772;52.996;9.124;2023-03-01T11:50:54;9.65;;;6.60;;
25980;SDS011;13772;52.996;9.124;2023-03-01T11:53:33;9.57;;;5.82;;
25980;SDS011;13772;52.996;9.124;2023-03-01T11:58:43;9.00;;;6.05;;
25980;SDS011;13772;52.996;9.124;2023-03-01T12:06:24;9.35;;;5.97;;
25980;SDS011;13772;52.996;9.124;2023-03-01T12:11:21;9.57;;;5.53;;
25980;SDS011;13772;52.996;9.124;2023-03-01T12:14:00;8.40;;;5.88;;
25980;SDS011;13772;52.996;9.124;2023-03-01T12:29:17;7.65;;;5.72;;
25980;SDS011;13772;52.996;9.124;2023-03-01T12:39:30;9.00;;;6.00;;
25980;SDS011;13772;52.996;9.124;2023-03-01T12:42:01;8.73;;;5.85;;
25980;SDS011;13772;52.996;9.124;2023-03-01T12:44:33;7.95;;;5.75;;
25980;SDS011;13772;52.996;9.124;2023-03-01T12:47:11;8.63;;;5.53;;
25980;SDS011;13772;52.996;9.124;2023-03-01T12:52:24;7.70;;;5.72;;
25980;SDS011;13772;52.996;9.124;2023-03-01T12:54:48;7.80;;;5.63;;
25980;SDS011;13772;52.996;9.124;2023-03-01T12:57:17;7.80;;;5.72;;
25980;SDS011;13772;52.996;9.124;2023-03-01T13:00:31;8.48;;;5.78;;
25980;SDS011;13772;52.996;9.124;2023-03-01T13:02:48;8.75;;;5.70;;
25980;SDS011;13772;52.996;9.124;2023-03-01T13:05:19;7.65;;;5.38;;
25980;SDS011;13772;52.996;9.124;2023-03-01T13:17:47;9.88;;;6.50;;
25980;SDS011;13772;52.996;9.124;2023-03-01T13:20:13;8.02;;;6.05;;
25980;SDS011;13772;52.996;9.124;2023-03-01T13:22:39;8.32;;;5.97;;
25980;SDS011;13772;52.996;9.124;2023-03-01T13:25:12;9.75;;;6.40;;
25980;SDS011;13772;52.996;9.124;2023-03-01T13:27:38;8.13;;;6.25;;
25980;SDS011;13772;52.996;9.124;2023-03-01T13:30:03;7.68;;;5.80;;
25980;SDS011;13772;52.996;9.124;2023-03-01T13:32:34;10.32;;;6.13;;
25980;SDS011;13772;52.996;9.124;2023-03-01T13:35:40;7.85;;;5.40;;
25980;SDS011;13772;52.996;9.124;2023-03-01T13:38:36;8.13;;;5.60;;
25980;SDS011;13772;52.996;9.124;2023-03-01T13:43:26;7.47;;;5.72;;
25980;SDS011;13772;52.996;9.124;2023-03-01T13:45:52;7.03;;;5.72;;
25980;SDS011;13772;52.996;9.124;2023-03-01T13:48:35;7.80;;;5.63;;
25980;SDS011;13772;52.996;9.124;2023-03-01T13:51:02;7.07;;;5.55;;
25980;SDS011;13772;52.996;9.124;2023-03-01T13:53:33;7.03;;;5.45;;
25980;SDS011;13772;52.996;9.124;2023-03-01T13:58:42;6.60;;;5.38;;
25980;SDS011;13772;52.996;9.124;2023-03-01T14:01:18;7.43;;;5.53;;
25980;SDS011;13772;52.996;9.124;2023-03-01T14:03:45;6.60;;;5.15;;
25980;SDS011;13772;52.996;9.124;2023-03-01T14:06:17;7.75;;;5.60;;
25980;SDS011;13772;52.996;9.124;2023-03-01T14:08:45;7.25;;;5.55;;
25980;SDS011;13772;52.996;9.124;2023-03-01T14:11:30;6.03;;;4.43;;
25980;SDS011;13772;52.996;9.124;2023-03-01T14:19:29;8.50;;;5.47;;
25980;SDS011;13772;52.996;9.124;2023-03-01T14:21:58;7.38;;;5.32;;
25980;SDS011;13772;52.996;9.124;2023-03-01T14:24:25;7.35;;;4.63;;
25980;SDS011;13772;52.996;9.124;2023-03-01T14:26:52;6.50;;;4.95;;
25980;SDS011;13772;52.996;9.124;2023-03-01T14:30:19;5.75;;;4.78;;
25980;SDS011;13772;52.996;9.124;2023-03-01T14:32:22;6.03;;;4.85;;
25980;SDS011;13772;52.996;9.124;2023-03-01T14:34:49;6.22;;;5.00;;
25980;SDS011;13772;52.996;9.124;2023-03-01T14:37:19;6.07;;;4.80;;
25980;SDS011;13772;52.996;9.124;2023-03-01T14:39:44;6.63;;;5.10;;
25980;SDS011;13772;52.996;9.124;2023-03-01T14:42:10;6.72;;;4.90;;
25980;SDS011;13772;52.996;9.124;2023-03-01T14:44:37;6.88;;;5.00;;
25980;SDS011;13772;52.996;9.124;2023-03-01T14:47:02;8.02;;;4.85;;
25980;SDS011;13772;52.996;9.124;2023-03-01T14:49:29;8.07;;;4.63;;
25980;SDS011;13772;52.996;9.124;2023-03-01T14:51:59;7.38;;;4.82;;
25980;SDS011;13772;52.996;9.124;2023-03-01T14:54:32;6.38;;;4.97;;
25980;SDS011;13772;52.996;9.124;2023-03-01T14:57:01;8.63;;;5.10;;
25980;SDS011;13772;52.996;9.124;2023-03-01T14:59:26;6.82;;;5.55;;
25980;SDS011;13772;52.996;9.124;2023-03-01T15:01:53;6.47;;;4.93;;
25980;SDS011;13772;52.996;9.124;2023-03-01T15:04:18;7.60;;;4.85;;
25980;SDS011;13772;52.996;9.124;2023-03-01T15:06:44;6.90;;;5.10;;
25980;SDS011;13772;52.996;9.124;2023-03-01T15:09:12;7.20;;;5.63;;
25980;SDS011;13772;52.996;9.124;2023-03-01T15:16:53;7.72;;;4.82;;
25980;SDS011;13772;52.996;9.124;2023-03-01T15:19:18;6.57;;;5.13;;
25980;SDS011;13772;52.996;9.124;2023-03-01T15:21:44;5.97;;;4.90;;
25980;SDS011;13772;52.996;9.124;2023-03-01T15:26:44;8.75;;;5.80;;
25980;SDS011;13772;52.996;9.124;2023-03-01T15:29:16;8.32;;;6.03;;
25980;SDS011;13772;52.996;9.124;2023-03-01T15:31:42;7.43;;;5.40;;
25980;SDS011;13772;52.996;9.124;2023-03-01T15:34:29;8.20;;;5.35;;
25980;SDS011;13772;52.996;9.124;2023-03-01T15:36:53;7.82;;;5.95;;
25980;SDS011;13772;52.996;9.124;2023-03-01T15:39:25;8.40;;;6.05;;
25980;SDS011;13772;52.996;9.124;2023-03-01T15:41:52;8.57;;;7.25;;
25980;SDS011;13772;52.996;9.124;2023-03-01T15:44:18;10.52;;;7.80;;
25980;SDS011;13772;52.996;9.124;2023-03-01T15:46:46;12.30;;;8.23;;
25980;SDS011;13772;52.996;9.124;2023-03-01T15:49:23;14.50;;;8.15;;
25980;SDS011;13772;52.996;9.124;2023-03-01T15:51:51;12.05;;;8.93;;
25980;SDS011;13772;52.996;9.124;2023-03-01T15:54:19;13.07;;;8.85;;
25980;SDS011;13772;52.996;9.124;2023-03-01T15:56:44;12.95;;;9.90;;
25980;SDS011;13772;52.996;9.124;2023-03-01T15:59:09;14.57;;;9.93;;
25980;SDS011;13772;52.996;9.124;2023-03-01T16:01:36;12.50;;;9.25;;
25980;SDS011;13772;52.996;9.124;2023-03-01T16:04:02;17.13;;;10.75;;
25980;SDS011;13772;52.996;9.124;2023-03-01T16:06:27;15.45;;;10.40;;
25980;SDS011;13772;52.996;9.124;2023-03-01T16:08:52;14.30;;;9.95;;
25980;SDS011;13772;52.996;9.124;2023-03-01T16:11:18;14.77;;;10.07;;
25980;SDS011;13772;52.996;9.124;2023-03-01T16:13:44;16.58;;;10.50;;
25980;SDS011;13772;52.996;9.124;2023-03-01T16:16:10;14.98;;;9.02;;
25980;SDS011;13772;52.996;9.124;2023-03-01T16:18:37;14.30;;;9.68;;
25980;SDS011;13772;52.996;9.124;2023-03-01T16:21:03;11.75;;;8.85;;
25980;SDS011;13772;52.996;9.124;2023-03-01T16:23:28;15.07;;;9.35;;
25980;SDS011;13772;52.996;9.124;2023-03-01T16:25:53;13.13;;;9.15;;
25980;SDS011;13772;52.996;9.124;2023-03-01T16:28:19;12.93;;;9.30;;
25980;SDS011;13772;52.996;9.124;2023-03-01T16:30:46;13.40;;;9.90;;
25980;SDS011;13772;52.996;9.124;2023-03-01T16:33:15;15.15;;;10.18;;
25980;SDS011;13772;52.996;9.124;2023-03-01T16:35:41;16.30;;;10.70;;
25980;SDS011;13772;52.996;9.124;2023-03-01T16:38:06;16.00;;;10.60;;
25980;SDS011;13772;52.996;9.124;2023-03-01T16:40:32;16.17;;;10.02;;
25980;SDS011;13772;52.996;9.124;2023-03-01T16:42:57;15.45;;;10.27;;
25980;SDS011;13772;52.996;9.124;2023-03-01T16:45:25;16.60;;;10.43;;
25980;SDS011;13772;52.996;9.124;2023-03-01T16:47:51;17.92;;;11.10;;
25980;SDS011;13772;52.996;9.124;2023-03-01T16:50:16;15.70;;;10.05;;
25980;SDS011;13772;52.996;9.124;2023-03-01T16:52:42;14.27;;;10.18;;
25980;SDS011;13772;52.996;9.124;2023-03-01T16:55:07;15.52;;;9.90;;
25980;SDS011;13772;52.996;9.124;2023-03-01T16:57:34;17.13;;;10.95;;
25980;SDS011;13772;52.996;9.124;2023-03-01T17:00:00;17.83;;;11.80;;
25980;SDS011;13772;52.996;9.124;2023-03-01T17:02:25;19.25;;;11.60;;
25980;SDS011;13772;52.996;9.124;2023-03-01T17:04:54;18.80;;;11.43;;
25980;SDS011;13772;52.996;9.124;2023-03-01T17:07:19;20.00;;;11.68;;
25980;SDS011;13772;52.996;9.124;2023-03-01T17:09:45;19.58;;;12.50;;
25980;SDS011;13772;52.996;9.124;2023-03-01T17:12:13;20.95;;;12.25;;
25980;SDS011;13772;52.996;9.124;2023-03-01T17:14:38;27.05;;;14.02;;
25980;SDS011;13772;52.996;9.124;2023-03-01T17:17:06;25.50;;;14.55;;
25980;SDS011;13772;52.996;9.124;2023-03-01T17:19:31;22.08;;;13.13;;
25980;SDS011;13772;52.996;9.124;2023-03-01T17:21:56;23.30;;;13.13;;
25980;SDS011;13772;52.996;9.124;2023-03-01T17:24:22;22.40;;;13.45;;
25980;SDS011;13772;52.996;9.124;2023-03-01T17:26:47;21.92;;;13.82;;
25980;SDS011;13772;52.996;9.124;2023-03-01T17:29:12;23.30;;;14.40;;
25980;SDS011;13772;52.996;9.124;2023-03-01T17:31:38;22.17;;;13.43;;
25980;SDS011;13772;52.996;9.124;2023-03-01T17:34:03;25.08;;;14.13;;
25980;SDS011;13772;52.996;9.124;2023-03-01T17:36:28;27.08;;;15.55;;
25980;SDS011;13772;52.996;9.124;2023-03-01T17:38:53;25.83;;;16.17;;
25980;SDS011;13772;52.996;9.124;2023-03-01T17:41:19;28.88;;;16.33;;
25980;SDS011;13772;52.996;9.124;2023-03-01T17:43:46;26.45;;;16.08;;
25980;SDS011;13772;52.996;9.124;2023-03-01T17:46:11;33.47;;;18.73;;
25980;SDS011;13772;52.996;9.124;2023-03-01T17:48:36;27.33;;;17.63;;
25980;SDS011;13772;52.996;9.124;2023-03-01T17:51:06;34.33;;;19.85;;
25980;SDS011;13772;52.996;9.124;2023-03-01T17:53:31;29.20;;;18.73;;
25980;SDS011;13772;52.996;9.124;2023-03-01T17:56:00;29.42;;;18.33;;
25980;SDS011;13772;52.996;9.124;2023-03-01T17:58:25;30.75;;;18.35;;
25980;SDS011;13772;52.996;9.124;2023-03-01T18:00:51;31.70;;;18.58;;
25980;SDS011;13772;52.996;9.124;2023-03-01T18:03:16;31.38;;;19.83;;
25980;SDS011;13772;52.996;9.124;2023-03-01T18:05:41;31.75;;;19.20;;
25980;SDS011;13772;52.996;9.124;2023-03-01T18:08:06;32.60;;;19.52;;
25980;SDS011;13772;52.996;9.124;2023-03-01T18:10:32;31.35;;;19.60;;
25980;SDS011;13772;52.996;9.124;2023-03-01T18:12:58;31.83;;;19.05;;
25980;SDS011;13772;52.996;9.124;2023-03-01T18:15:23;33.00;;;20.70;;
25980;SDS011;13772;52.996;9.124;2023-03-01T18:17:48;31.98;;;19.77;;
25980;SDS011;13772;52.996;9.124;2023-03-01T18:20:14;35.78;;;21.67;;
25980;SDS011;13772;52.996;9.124;2023-03-01T18:22:40;37.85;;;22.08;;
25980;SDS011;13772;52.996;9.124;2023-03-01T18:25:05;37.25;;;21.27;;
25980;SDS011;13772;52.996;9.124;2023-03-01T18:27:30;36.65;;;21.92;;
25980;SDS011;13772;52.996;9.124;2023-03-01T18:29:55;36.90;;;21.63;;
25980;SDS011;13772;52.996;9.124;2023-03-01T18:32:21;37.08;;;21.77;;
25980;SDS011;13772;52.996;9.124;2023-03-01T18:34:47;39.05;;;23.42;;
25980;SDS011;13772;52.996;9.124;2023-03-01T18:37:12;39.72;;;23.75;;
25980;SDS011;13772;52.996;9.124;2023-03-01T18:39:38;41.50;;;23.00;;
25980;SDS011;13772;52.996;9.124;2023-03-01T18:42:05;36.75;;;20.27;;
25980;SDS011;13772;52.996;9.124;2023-03-01T18:44:30;33.90;;;20.13;;
25980;SDS011;13772;52.996;9.124;2023-03-01T18:46:56;34.20;;;20.00;;
25980;SDS011;13772;52.996;9.124;2023-03-01T18:49:22;39.10;;;20.15;;
25980;SDS011;13772;52.996;9.124;2023-03-01T18:51:47;34.20;;;19.02;;
25980;SDS011;13772;52.996;9.124;2023-03-01T18:54:14;35.63;;;18.85;;
25980;SDS011;13772;52.996;9.124;2023-03-01T18:56:39;35.97;;;19.90;;
25980;SDS011;13772;52.996;9.124;2023-03-01T18:59:05;36.15;;;18.92;;
25980;SDS011;13772;52.996;9.124;2023-03-01T19:01:30;35.90;;;19.48;;
25980;SDS011;13772;52.996;9.124;2023-03-01T19:03:56;38.60;;;18.35;;
25980;SDS011;13772;52.996;9.124;2023-03-01T19:06:22;38.80;;;19.08;;
25980;SDS011;13772;52.996;9.124;2023-03-01T19:08:48;36.40;;;18.48;;
25980;SDS011;13772;52.996;9.124;2023-03-01T19:11:14;36.22;;;18.38;;
25980;SDS011;13772;52.996;9.124;2023-03-01T19:13:42;34.72;;;18.45;;
25980;SDS011;13772;52.996;9.124;2023-03-01T19:16:18;35.22;;;18.10;;
25980;SDS011;13772;52.996;9.124;2023-03-01T19:18:43;36.80;;;19.38;;
25980;SDS011;13772;52.996;9.124;2023-03-01T19:21:14;37.00;;;19.05;;
25980;SDS011;13772;52.996;9.124;2023-03-01T19:23:39;36.40;;;19.00;;
25980;SDS011;13772;52.996;9.124;2023-03-01T19:26:06;35.13;;;18.88;;
25980;SDS011;13772;52.996;9.124;2023-03-01T19:28:31;36.05;;;19.02;;
25980;SDS011;13772;52.996;9.124;2023-03-01T19:31:00;35.33;;;18.38;;
25980;SDS011;13772;52.996;9.124;2023-03-01T19:33:29;34.38;;;18.92;;
25980;SDS011;13772;52.996;9.124;2023-03-01T19:35:55;34.83;;;18.48;;
25980;SDS011;13772;52.996;9.124;2023-03-01T19:38:20;34.88;;;19.08;;
25980;SDS011;13772;52.996;9.124;2023-03-01T19:40:45;37.08;;;19.15;;
25980;SDS011;13772;52.996;9.124;2023-03-01T19:43:11;35.42;;;17.85;;
25980;SDS011;13772;52.996;9.124;2023-03-01T19:45:36;38.22;;;18.90;;
25980;SDS011;13772;52.996;9.124;2023-03-01T19:48:01;39.88;;;20.80;;
25980;SDS011;13772;52.996;9.124;2023-03-01T19:50:26;40.15;;;20.35;;
25980;SDS011;13772;52.996;9.124;2023-03-01T19:52:51;43.42;;;21.27;;
25980;SDS011;13772;52.996;9.124;2023-03-01T19:55:17;35.78;;;19.55;;
25980;SDS011;13772;52.996;9.124;2023-03-01T19:57:42;38.78;;;20.42;;
25980;SDS011;13772;52.996;9.124;2023-03-01T20:00:07;39.67;;;19.52;;
25980;SDS011;13772;52.996;9.124;2023-03-01T20:02:37;38.97;;;19.75;;
25980;SDS011;13772;52.996;9.124;2023-03-01T20:05:02;40.65;;;18.77;;
25980;SDS011;13772;52.996;9.124;2023-03-01T20:07:28;38.13;;;19.30;;
25980;SDS011;13772;52.996;9.124;2023-03-01T20:09:53;42.40;;;20.50;;
25980;SDS011;13772;52.996;9.124;2023-03-01T20:12:18;41.58;;;20.75;;
25980;SDS011;13772;52.996;9.124;2023-03-01T20:14:44;39.75;;;18.98;;
25980;SDS011;13772;52.996;9.124;2023-03-01T20:17:09;42.28;;;20.52;;
25980;SDS011;13772;52.996;9.124;2023-03-01T20:19:34;41.42;;;20.50;;
25980;SDS011;13772;52.996;9.124;2023-03-01T20:21:59;37.55;;;19.67;;
25980;SDS011;13772;52.996;9.124;2023-03-01T20:24:25;40.20;;;19.95;;
25980;SDS011;13772;52.996;9.124;2023-03-01T20:26:50;41.30;;;20.38;;
25980;SDS011;13772;52.996;9.124;2023-03-01T20:29:15;42.90;;;19.88;;
25980;SDS011;13772;52.996;9.124;2023-03-01T20:31:41;40.25;;;19.48;;
25980;SDS011;13772;52.996;9.124;2023-03-01T20:34:06;46.55;;;21.58;;
25980;SDS011;13772;52.996;9.124;2023-03-01T20:36:31;44.25;;;21.33;;
25980;SDS011;13772;52.996;9.124;2023-03-01T20:38:57;44.75;;;20.70;;
25980;SDS011;13772;52.996;9.124;2023-03-01T20:41:23;39.38;;;20.30;;
25980;SDS011;13772;52.996;9.124;2023-03-01T20:46:20;41.50;;;19.65;;
25980;SDS011;13772;52.996;9.124;2023-03-01T20:48:47;44.90;;;21.38;;
25980;SDS011;13772;52.996;9.124;2023-03-01T20:51:12;46.00;;;21.58;;
25980;SDS011;13772;52.996;9.124;2023-03-01T20:53:38;47.05;;;22.35;;
25980;SDS011;13772;52.996;9.124;2023-03-01T20:56:04;46.65;;;22.70;;
25980;SDS011;13772;52.996;9.124;2023-03-01T20:58:29;50.03;;;22.65;;
25980;SDS011;13772;52.996;9.124;2023-03-01T21:00:58;47.50;;;22.60;;
25980;SDS011;13772;52.996;9.124;2023-03-01T21:03:23;48.80;;;22.05;;
25980;SDS011;13772;52.996;9.124;2023-03-01T21:05:49;42.42;;;21.38;;
25980;SDS011;13772;52.996;9.124;2023-03-01T21:08:14;46.90;;;20.55;;
25980;SDS011;13772;52.996;9.124;2023-03-01T21:10:39;47.35;;;21.45;;
25980;SDS011;13772;52.996;9.124;2023-03-01T21:13:04;41.67;;;20.42;;
25980;SDS011;13772;52.996;9.124;2023-03-01T21:15:29;43.92;;;20.90;;
25980;SDS011;13772;52.996;9.124;2023-03-01T21:17:55;47.63;;;19.88;;
25980;SDS011;13772;52.996;9.124;2023-03-01T21:20:20;44.88;;;20.52;;
25980;SDS011;13772;52.996;9.124;2023-03-01T21:22:45;50.53;;;19.90;;
25980;SDS011;13772;52.996;9.124;2023-03-01T21:25:10;43.83;;;19.55;;
25980;SDS011;13772;52.996;9.124;2023-03-01T21:27:36;46.67;;;19.35;;
25980;SDS011;13772;52.996;9.124;2023-03-01T21:30:02;45.47;;;18.77;;
25980;SDS011;13772;52.996;9.124;2023-03-01T21:32:27;42.33;;;20.00;;
25980;SDS011;13772;52.996;9.124;2023-03-01T21:34:52;42.53;;;19.00;;
25980;SDS011;13772;52.996;9.124;2023-03-01T21:37:18;43.75;;;20.23;;
25980;SDS011;13772;52.996;9.124;2023-03-01T21:39:46;36.45;;;20.17;;
25980;SDS011;13772;52.996;9.124;2023-03-01T21:42:11;40.72;;;19.98;;
25980;SDS011;13772;52.996;9.124;2023-03-01T21:44:36;39.72;;;20.02;;
25980;SDS011;13772;52.996;9.124;2023-03-01T21:47:01;42.53;;;19.98;;
25980;SDS011;13772;52.996;9.124;2023-03-01T21:49:27;40.30;;;19.65;;
25980;SDS011;13772;52.996;9.124;2023-03-01T21:51:52;45.65;;;20.00;;
25980;SDS011;13772;52.996;9.124;2023-03-01T21:54:17;43.15;;;19.98;;
25980;SDS011;13772;52.996;9.124;2023-03-01T21:56:44;41.05;;;19.52;;
25980;SDS011;13772;52.996;9.124;2023-03-01T21:59:11;48.38;;;20.63;;
25980;SDS011;13772;52.996;9.124;2023-03-01T22:01:36;45.83;;;19.80;;
25980;SDS011;13772;52.996;9.124;2023-03-01T22:04:02;59.33;;;20.65;;
25980;SDS011;13772;52.996;9.124;2023-03-01T22:06:32;45.60;;;21.02;;
25980;SDS011;13772;52.996;9.124;2023-03-01T22:08:59;39.63;;;19.85;;
25980;SDS011;13772;52.996;9.124;2023-03-01T22:11:25;50.08;;;20.27;;
25980;SDS011;13772;52.996;9.124;2023-03-01T22:13:51;44.83;;;19.70;;
25980;SDS011;13772;52.996;9.124;2023-03-01T22:16:18;41.85;;;20.35;;
25980;SDS011;13772;52.996;9.124;2023-03-01T22:18:44;52.70;;;20.73;;
25980;SDS011;13772;52.996;9.124;2023-03-01T22:21:09;51.40;;;20.60;;
25980;SDS011;13772;52.996;9.124;2023-03-01T22:23:35;47.30;;;21.70;;
25980;SDS011;13772;52.996;9.124;2023-03-01T22:26:01;54.40;;;19.40;;
25980;SDS011;13772;52.996;9.124;2023-03-01T22:28:27;70.40;;;20.02;;
25980;SDS011;13772;52.996;9.124;2023-03-01T22:30:52;62.85;;;21.38;;
25980;SDS011;13772;52.996;9.124;2023-03-01T22:33:17;74.10;;;22.75;;
25980;SDS011;13772;52.996;9.124;2023-03-01T22:35:43;87.53;;;24.95;;
25980;SDS011;13772;52.996;9.124;2023-03-01T22:38:08;75.22;;;23.05;;
25980;SDS011;13772;52.996;9.124;2023-03-01T22:40:33;60.22;;;22.98;;
25980;SDS011;13772;52.996;9.124;2023-03-01T22:42:58;57.90;;;21.42;;
25980;SDS011;13772;52.996;9.124;2023-03-01T22:45:23;48.75;;;22.80;;
25980;SDS011;13772;52.996;9.124;2023-03-01T22:47:49;62.65;;;24.17;;
25980;SDS011;13772;52.996;9.124;2023-03-01T22:50:14;56.03;;;22.35;;
25980;SDS011;13772;52.996;9.124;2023-03-01T22:52:39;55.75;;;18.83;;
25980;SDS011;13772;52.996;9.124;2023-03-01T22:55:05;43.45;;;20.05;;
